Time;durP1;ratioP1;P1;durP2;ratioP2;P2;SDS_P1;SDS_P2;PMS_P1;PMS_P2;Temp;Humidity;BMP_temperature;BMP_pressure;BME280_temperature;BME280_humidity;BME280_pressure;Samples;Min_cycle;Max_cycle;Signal;HPM_P1;HPM_P2
2022/08/22 00:01:50;;;;;;;6.97;2.97;;;;;;;;;;5009311;28;94055;-72
2022/08/22 00:04:40;;;;;;;10.68;3.50;;;;;;;;;;5017114;28;92456;-72
2022/08/22 00:07:15;;;;;;;12.57;3.53;;;;;;;;;;5014296;28;93861;-72
2022/08/22 00:09:41;;;;;;;11.82;3.53;;;;;;;;;;5000719;28;93469;-72
2022/08/22 00:12:14;;;;;;;10.57;3.65;;;;;;;;;;5015385;28;92683;-72
2022/08/22 00:14:45;;;;;;;7.00;3.20;;;;;;;;;;5017130;28;93115;-72
2022/08/22 00:17:20;;;;;;;12.48;3.40;;;;;;;;;;5014441;28;96539;-72
2022/08/22 00:19:47;;;;;;;10.68;3.42;;;;;;;;;;5017008;28;92420;-73
2022/08/22 00:22:28;;;;;;;11.60;3.85;;;;;;;;;;5015315;28;93297;-72
2022/08/22 00:25:01;;;;;;;8.95;3.83;;;;;;;;;;4989820;28;93099;-72
2022/08/22 00:27:32;;;;;;;8.93;3.20;;;;;;;;;;4977373;28;92905;-72
2022/08/22 00:30:04;;;;;;;10.98;3.47;;;;;;;;;;4977118;28;93078;-72
2022/08/22 00:32:35;;;;;;;9.18;3.20;;;;;;;;;;4976590;28;93165;-72
2022/08/22 00:35:10;;;;;;;10.77;3.75;;;;;;;;;;4977460;28;94250;-72
2022/08/22 00:37:39;;;;;;;12.57;3.15;;;;;;;;;;4976856;28;93164;-72
2022/08/22 00:40:29;;;;;;;13.25;4.03;;;;;;;;;;4976325;28;92875;-72
2022/08/22 00:43:01;;;;;;;6.25;3.05;;;;;;;;;;4994378;28;94889;-72
2022/08/22 00:45:54;;;;;;;10.68;3.22;;;;;;;;;;4996254;28;93375;-72
2022/08/22 00:48:39;;;;;;;11.73;3.17;;;;;;;;;;5010638;28;92520;-72
2022/08/22 00:51:25;;;;;;;8.25;2.83;;;;;;;;;;5016674;28;93414;-72
2022/08/22 00:53:59;;;;;;;10.27;3.50;;;;;;;;;;4999878;28;93224;-72
2022/08/22 00:56:38;;;;;;;11.25;2.97;;;;;;;;;;4996878;28;93071;-72
2022/08/22 00:59:18;;;;;;;11.60;3.90;;;;;;;;;;4997107;28;93605;-72
2022/08/22 01:02:00;;;;;;;9.70;3.63;;;;;;;;;;5015422;28;91677;-72
2022/08/22 01:04:32;;;;;;;7.35;3.00;;;;;;;;;;5016958;28;93333;-72
2022/08/22 01:07:31;;;;;;;4.68;2.55;;;;;;;;;;5015330;28;94618;-72
2022/08/22 01:10:13;;;;;;;17.13;3.90;;;;;;;;;;4992943;28;95385;-72
2022/08/22 01:13:02;;;;;;;16.13;3.45;;;;;;;;;;5014094;28;95511;-72
2022/08/22 01:15:32;;;;;;;11.73;3.00;;;;;;;;;;4979987;28;92832;-72
2022/08/22 01:18:10;;;;;;;13.70;3.05;;;;;;;;;;5012910;28;95186;-72
2022/08/22 01:20:54;;;;;;;8.88;3.42;;;;;;;;;;5013573;28;94102;-72
2022/08/22 01:23:20;;;;;;;10.38;3.28;;;;;;;;;;5006294;28;92431;-72
2022/08/22 01:25:57;;;;;;;11.23;3.78;;;;;;;;;;5013325;28;92808;-72
2022/08/22 01:28:46;;;;;;;14.18;3.45;;;;;;;;;;4998367;28;93424;-72
2022/08/22 01:31:13;;;;;;;7.90;3.17;;;;;;;;;;4976787;28;92404;-72
2022/08/22 01:33:45;;;;;;;8.98;3.20;;;;;;;;;;5004514;28;93168;-72
2022/08/22 01:36:30;;;;;;;7.85;2.83;;;;;;;;;;5011702;28;94899;-72
2022/08/22 01:38:56;;;;;;;9.68;3.88;;;;;;;;;;5015802;28;95366;-72
2022/08/22 01:41:42;;;;;;;6.55;3.58;;;;;;;;;;5008934;28;92489;-72
2022/08/22 01:44:16;;;;;;;10.55;3.50;;;;;;;;;;4996110;28;92406;-72
2022/08/22 01:46:50;;;;;;;8.48;3.75;;;;;;;;;;4995506;28;94302;-72
2022/08/22 01:49:16;;;;;;;11.15;3.40;;;;;;;;;;4994296;28;94229;-72
2022/08/22 01:51:52;;;;;;;10.23;3.53;;;;;;;;;;5009539;28;92460;-72
2022/08/22 01:54:38;;;;;;;17.23;3.42;;;;;;;;;;5014349;28;93961;-72
2022/08/22 01:57:07;;;;;;;13.43;3.80;;;;;;;;;;5018029;28;94270;-72
2022/08/22 01:59:33;;;;;;;15.73;4.47;;;;;;;;;;5015671;28;93201;-72
2022/08/22 02:02:11;;;;;;;10.48;3.35;;;;;;;;;;5013238;28;95728;-72
2022/08/22 02:04:40;;;;;;;9.10;3.08;;;;;;;;;;5014880;28;92819;-72
2022/08/22 02:07:13;;;;;;;8.32;3.60;;;;;;;;;;5013456;28;93122;-72
2022/08/22 02:10:02;;;;;;;14.73;3.55;;;;;;;;;;4994113;28;94199;-72
2022/08/22 02:12:36;;;;;;;7.68;4.90;;;;;;;;;;4995154;28;93067;-72
2022/08/22 02:15:06;;;;;;;11.98;3.88;;;;;;;;;;5000922;28;94098;-72
2022/08/22 02:17:49;;;;;;;11.27;4.07;;;;;;;;;;5014318;28;94745;-72
2022/08/22 02:20:34;;;;;;;11.55;3.58;;;;;;;;;;5018866;28;91699;-72
2022/08/22 02:23:06;;;;;;;14.02;3.58;;;;;;;;;;5015069;28;95428;-72
2022/08/22 02:25:32;;;;;;;;;;;;;;;;;;4999360;28;93471;-72
2022/08/22 02:28:05;;;;;;;10.15;4.25;;;;;;;;;;5006420;28;123862;-72
2022/08/22 02:30:50;;;;;;;9.80;3.15;;;;;;;;;;5014862;28;93553;-72
2022/08/22 02:33:35;;;;;;;9.45;3.70;;;;;;;;;;5015257;28;92407;-72
2022/08/22 02:36:04;;;;;;;15.23;3.90;;;;;;;;;;5003156;28;92311;-72
2022/08/22 02:38:37;;;;;;;9.77;3.60;;;;;;;;;;4993971;28;93432;-72
2022/08/22 02:41:03;;;;;;;10.20;4.13;;;;;;;;;;4980435;28;92542;-72
2022/08/22 02:43:44;;;;;;;8.38;3.60;;;;;;;;;;4998285;28;93162;-72
2022/08/22 02:46:17;;;;;;;11.38;3.50;;;;;;;;;;4994909;28;92486;-72
2022/08/22 02:48:50;;;;;;;8.05;3.45;;;;;;;;;;4993976;28;93298;-72
2022/08/22 02:51:35;;;;;;;10.75;3.30;;;;;;;;;;4994572;28;94349;-72
2022/08/22 02:54:19;;;;;;;15.98;3.40;;;;;;;;;;4992567;28;95277;-72
2022/08/22 02:56:51;;;;;;;10.05;3.30;;;;;;;;;;4994568;28;96324;-72
2022/08/22 02:59:30;;;;;;;10.32;3.13;;;;;;;;;;4994626;28;94381;-72
2022/08/22 03:02:17;;;;;;;7.43;3.30;;;;;;;;;;4994485;28;93011;-72
2022/08/22 03:04:46;;;;;;;9.63;4.53;;;;;;;;;;4994515;28;93962;-72
2022/08/22 03:07:12;;;;;;;7.40;3.55;;;;;;;;;;5016209;28;94111;-72
2022/08/22 03:09:44;;;;;;;8.75;3.63;;;;;;;;;;5014152;28;93212;-72
2022/08/22 03:12:14;;;;;;;10.13;3.95;;;;;;;;;;5007823;28;92690;-72
2022/08/22 03:14:58;;;;;;;14.35;4.07;;;;;;;;;;5009732;28;92422;-72
2022/08/22 03:17:32;;;;;;;8.05;3.15;;;;;;;;;;4984764;28;94016;-72
2022/08/22 03:20:03;;;;;;;9.00;3.90;;;;;;;;;;4994507;28;96653;-72
2022/08/22 03:22:34;;;;;;;11.60;3.53;;;;;;;;;;5002436;28;92530;-72
2022/08/22 03:25:20;;;;;;;7.70;3.33;;;;;;;;;;4997637;28;92822;-72
2022/08/22 03:27:59;;;;;;;8.65;3.20;;;;;;;;;;4997079;28;93505;-72
2022/08/22 03:30:40;;;;;;;7.22;3.45;;;;;;;;;;5000788;28;92454;-72
2022/08/22 03:33:12;;;;;;;12.32;3.55;;;;;;;;;;5006983;28;93529;-72
2022/08/22 03:35:44;;;;;;;11.55;3.80;;;;;;;;;;5017146;28;92328;-72
2022/08/22 03:38:11;;;;;;;;;;;;;;;;;;5018687;28;94402;-72
2022/08/22 03:40:44;;;;;;;7.82;3.88;;;;;;;;;;5017938;28;123806;-72
2022/08/22 03:43:28;;;;;;;9.55;3.30;;;;;;;;;;4977493;28;92503;-72
2022/08/22 03:46:15;;;;;;;10.07;3.78;;;;;;;;;;4976466;28;94814;-72
2022/08/22 03:49:02;;;;;;;9.57;4.15;;;;;;;;;;4975904;28;93592;-72
2022/08/22 03:51:44;;;;;;;12.45;3.70;;;;;;;;;;4983672;28;92500;-72
2022/08/22 03:54:33;;;;;;;6.97;4.05;;;;;;;;;;5017438;28;94219;-72
2022/08/22 03:57:05;;;;;;;12.13;4.05;;;;;;;;;;5016680;28;92403;-72
2022/08/22 03:59:34;;;;;;;12.23;3.93;;;;;;;;;;5017623;28;94154;-72
2022/08/22 04:02:16;;;;;;;12.25;4.05;;;;;;;;;;5016632;28;93733;-72
2022/08/22 04:05:17;;;;;;;8.43;3.72;;;;;;;;;;5018171;28;91727;-72
2022/08/22 04:08:00;;;;;;;13.23;3.80;;;;;;;;;;5001633;28;92360;-72
2022/08/22 04:10:46;;;;;;;13.85;4.03;;;;;;;;;;4996399;28;93382;-72
2022/08/22 04:13:24;;;;;;;9.25;2.97;;;;;;;;;;4995808;28;95515;-72
2022/08/22 04:16:09;;;;;;;9.10;3.92;;;;;;;;;;5000262;28;95610;-72
2022/08/22 04:18:44;;;;;;;11.75;4.22;;;;;;;;;;4997519;28;92314;-72
2022/08/22 04:21:13;;;;;;;12.48;3.80;;;;;;;;;;4997599;28;93436;-72
2022/08/22 04:23:48;;;;;;;8.00;3.95;;;;;;;;;;4996997;28;93621;-72
2022/08/22 04:26:20;;;;;;;11.00;3.95;;;;;;;;;;4997979;28;92525;-72
2022/08/22 04:28:49;;;;;;;15.10;4.13;;;;;;;;;;4998930;28;93971;-72
2022/08/22 04:31:26;;;;;;;12.80;4.20;;;;;;;;;;4980186;28;93333;-72
2022/08/22 04:33:56;;;;;;;18.40;4.63;;;;;;;;;;4996695;28;92406;-72
2022/08/22 04:36:34;;;;;;;16.67;4.38;;;;;;;;;;4995778;28;93952;-72
2022/08/22 04:39:11;;;;;;;11.88;4.38;;;;;;;;;;5008103;28;96693;-72
2022/08/22 04:41:37;;;;;;;16.23;3.97;;;;;;;;;;4996818;28;95341;-72
2022/08/22 04:44:11;;;;;;;9.90;4.15;;;;;;;;;;4996927;28;93580;-73
2022/08/22 04:46:44;;;;;;;14.15;4.68;;;;;;;;;;4996362;28;93232;-73
2022/08/22 04:49:11;;;;;;;12.05;4.40;;;;;;;;;;4976346;28;94644;-72
2022/08/22 04:51:39;;;;;;;12.45;4.47;;;;;;;;;;4976480;28;93289;-72
2022/08/22 04:54:12;;;;;;;13.02;4.03;;;;;;;;;;4997453;28;92491;-72
2022/08/22 04:57:04;;;;;;;15.73;4.85;;;;;;;;;;4997030;28;93931;-72
2022/08/22 04:59:32;;;;;;;22.50;5.05;;;;;;;;;;4976040;28;93689;-72
2022/08/22 05:02:05;;;;;;;13.45;4.35;;;;;;;;;;4991232;28;92471;-72
2022/08/22 05:04:37;;;;;;;21.10;5.15;;;;;;;;;;5002835;28;96745;-72
2022/08/22 05:07:10;;;;;;;11.70;4.38;;;;;;;;;;4999224;28;93800;-71
2022/08/22 05:09:40;;;;;;;18.33;5.07;;;;;;;;;;4989957;28;93859;-70
2022/08/22 05:12:10;;;;;;;13.43;4.57;;;;;;;;;;4985559;28;92590;-70
2022/08/22 05:14:39;;;;;;;18.20;4.50;;;;;;;;;;4973152;28;92528;-70
2022/08/22 05:17:07;;;;;;;14.32;4.88;;;;;;;;;;4976161;28;93614;-70
2022/08/22 05:19:36;;;;;;;8.82;4.63;;;;;;;;;;4975207;28;92366;-70
2022/08/22 05:22:09;;;;;;;16.23;4.93;;;;;;;;;;4989666;28;91695;-71
2022/08/22 05:24:38;;;;;;;13.32;4.50;;;;;;;;;;5004853;28;93208;-69
2022/08/22 05:27:13;;;;;;;12.30;4.32;;;;;;;;;;4995853;28;92557;-70
2022/08/22 05:29:41;;;;;;;14.10;4.43;;;;;;;;;;5007800;28;94776;-70
2022/08/22 05:32:11;;;;;;;9.55;5.07;;;;;;;;;;5014369;28;93297;-70
2022/08/22 05:34:39;;;;;;;16.35;4.97;;;;;;;;;;4990945;28;92569;-70
2022/08/22 05:37:10;;;;;;;15.52;4.57;;;;;;;;;;5014697;28;93786;-71
2022/08/22 05:39:37;;;;;;;14.65;5.18;;;;;;;;;;5010372;28;94394;-71
2022/08/22 05:42:04;;;;;;;11.88;4.55;;;;;;;;;;4998576;28;94026;-71
2022/08/22 05:44:35;;;;;;;8.57;4.45;;;;;;;;;;5001594;28;93176;-70
2022/08/22 05:47:04;;;;;;;14.25;4.82;;;;;;;;;;4996658;28;93700;-70
2022/08/22 05:49:46;;;;;;;7.22;3.55;;;;;;;;;;4996771;28;92550;-71
2022/08/22 05:52:20;;;;;;;7.88;3.88;;;;;;;;;;4996339;28;93408;-70
2022/08/22 05:55:01;;;;;;;12.65;4.88;;;;;;;;;;5013267;28;94995;-71
2022/08/22 05:57:29;;;;;;;18.70;5.80;;;;;;;;;;4985771;28;95711;-71
2022/08/22 05:59:59;;;;;;;11.02;4.53;;;;;;;;;;4984792;28;93850;-70
2022/08/22 06:02:37;;;;;;;9.60;4.18;;;;;;;;;;4975425;28;94242;-72
2022/08/22 06:05:06;;;;;;;12.35;5.50;;;;;;;;;;4976662;28;93352;-71
2022/08/22 06:07:45;;;;;;;12.55;4.70;;;;;;;;;;4977463;28;93174;-72
2022/08/22 06:10:12;;;;;;;11.63;4.13;;;;;;;;;;4974560;28;93145;-71
2022/08/22 06:12:42;;;;;;;7.82;4.50;;;;;;;;;;4981312;28;93264;-71
2022/08/22 06:15:11;;;;;;;12.63;5.03;;;;;;;;;;4976146;28;92613;-71
2022/08/22 06:17:48;;;;;;;8.75;4.40;;;;;;;;;;4987831;28;93069;-71
2022/08/22 06:20:19;;;;;;;20.17;5.55;;;;;;;;;;4988056;28;96171;-70
2022/08/22 06:22:51;;;;;;;16.77;5.35;;;;;;;;;;4991469;28;92767;-71
2022/08/22 06:25:23;;;;;;;12.30;4.32;;;;;;;;;;4988590;28;93109;-70
2022/08/22 06:27:50;;;;;;;15.52;4.57;;;;;;;;;;4989917;28;93366;-71
2022/08/22 06:30:17;;;;;;;16.48;5.45;;;;;;;;;;4997504;28;92437;-72
2022/08/22 06:32:47;;;;;;;17.23;7.32;;;;;;;;;;4994396;28;93467;-72
2022/08/22 06:36:29;;;;;;;12.90;5.60;;;;;;;;;;4995254;28;92770;-71
2022/08/22 06:38:19;;;;;;;17.83;6.43;;;;;;;;;;4993807;28;93394;-71
2022/08/22 06:40:45;;;;;;;10.63;5.30;;;;;;;;;;4993358;28;94110;-71
2022/08/22 06:43:12;;;;;;;10.60;5.43;;;;;;;;;;4993164;28;92498;-72
2022/08/22 06:45:39;;;;;;;13.60;6.15;;;;;;;;;;4979297;28;96283;-72
2022/08/22 06:48:05;;;;;;;16.02;5.40;;;;;;;;;;4994510;28;93597;-71
2022/08/22 06:50:35;;;;;;;15.38;6.72;;;;;;;;;;4984333;28;92472;-71
2022/08/22 06:53:04;;;;;;;24.58;7.40;;;;;;;;;;4976593;28;93195;-71
2022/08/22 06:55:32;;;;;;;13.95;5.40;;;;;;;;;;4974671;28;92604;-71
2022/08/22 06:58:04;;;;;;;14.73;6.93;;;;;;;;;;4972883;28;93200;-71
2022/08/22 07:00:32;;;;;;;12.38;6.22;;;;;;;;;;4974415;28;93325;-71
2022/08/22 07:03:25;;;;;;;15.63;6.40;;;;;;;;;;4978355;28;91723;-72
2022/08/22 07:05:53;;;;;;;16.50;6.20;;;;;;;;;;4971903;28;93485;-72
2022/08/22 07:08:21;;;;;;;14.00;5.45;;;;;;;;;;4974853;28;94295;-71
2022/08/22 07:11:14;;;;;;;10.23;4.70;;;;;;;;;;4973098;28;96377;-72
2022/08/22 07:13:40;;;;;;;;;;;;;;;;;;4971481;28;94250;-71
2022/08/22 07:16:07;;;;;;;19.17;5.65;;;;;;;;;;4981473;28;123727;-71
2022/08/22 07:18:44;;;;;;;10.63;5.32;;;;;;;;;;4994793;28;94078;-72
2022/08/22 07:21:10;;;;;;;14.85;5.95;;;;;;;;;;4974299;28;93569;-71
2022/08/22 07:23:39;;;;;;;16.00;5.25;;;;;;;;;;4974657;28;92398;-72
2022/08/22 07:26:08;;;;;;;9.85;6.20;;;;;;;;;;4974137;28;93929;-72
2022/08/22 07:28:46;;;;;;;14.65;5.90;;;;;;;;;;4974909;28;92697;-71
2022/08/22 07:31:36;;;;;;;18.50;6.18;;;;;;;;;;4983992;28;92510;-71
2022/08/22 07:34:22;;;;;;;12.60;5.18;;;;;;;;;;4974509;28;93084;-72
2022/08/22 07:36:52;;;;;;;18.88;5.60;;;;;;;;;;4972365;28;96513;-71
2022/08/22 07:39:22;;;;;;;14.13;6.32;;;;;;;;;;4977402;28;92517;-71
2022/08/22 07:41:55;;;;;;;17.13;5.38;;;;;;;;;;4974158;28;93573;-72
2022/08/22 07:44:22;;;;;;;12.65;5.20;;;;;;;;;;4974688;28;92426;-72
2022/08/22 07:46:55;;;;;;;17.05;5.38;;;;;;;;;;4974736;28;94428;-72
2022/08/22 07:49:25;;;;;;;15.27;5.10;;;;;;;;;;4972969;28;94180;-72
2022/08/22 07:51:52;;;;;;;13.23;5.75;;;;;;;;;;4975079;28;92537;-72
2022/08/22 07:54:40;;;;;;;13.60;5.20;;;;;;;;;;4974486;28;93151;-72
2022/08/22 07:57:09;;;;;;;11.50;4.97;;;;;;;;;;4974383;28;94016;-72
2022/08/22 07:59:37;;;;;;;19.02;5.93;;;;;;;;;;4974292;28;92465;-72
2022/08/22 08:02:06;;;;;;;13.50;5.53;;;;;;;;;;4992635;28;95308;-72
2022/08/22 08:04:34;;;;;;;13.55;6.05;;;;;;;;;;4993734;28;92444;-72
2022/08/22 08:07:07;;;;;;;13.02;6.07;;;;;;;;;;4994320;28;93850;-72
2022/08/22 08:09:37;;;;;;;12.45;6.22;;;;;;;;;;4993767;28;93491;-72
2022/08/22 08:12:04;;;;;;;13.55;5.68;;;;;;;;;;4997443;28;92455;-73
2022/08/22 08:14:32;;;;;;;9.50;4.97;;;;;;;;;;4996533;28;93982;-72
2022/08/22 08:17:09;;;;;;;16.65;6.18;;;;;;;;;;4996297;28;94011;-72
2022/08/22 08:19:38;;;;;;;11.75;5.55;;;;;;;;;;4997885;28;91891;-72
2022/08/22 08:22:05;;;;;;;15.15;5.13;;;;;;;;;;5000292;28;92310;-73
2022/08/22 08:24:36;;;;;;;12.50;5.32;;;;;;;;;;4996711;28;92419;-73
2022/08/22 08:30:10;;;;;;;20.48;5.13;;;;;;;;;;4994277;28;93445;-72
2022/08/22 08:32:41;;;;;;;9.38;4.80;;;;;;;;;;4983519;28;92475;-71
2022/08/22 08:35:16;;;;;;;9.77;5.00;;;;;;;;;;4997266;28;93853;-72
2022/08/22 08:37:55;;;;;;;5.88;4.22;;;;;;;;;;4996012;28;94347;-72
2022/08/22 08:40:31;;;;;;;10.13;4.88;;;;;;;;;;4982538;28;92438;-74
2022/08/22 08:46:05;;;;;;;9.93;5.07;;;;;;;;;;4987804;28;93120;-72
2022/08/22 08:48:35;;;;;;;15.70;5.25;;;;;;;;;;4996711;28;93086;-72
2022/08/22 08:51:04;;;;;;;10.25;4.90;;;;;;;;;;4980060;28;93484;-72
2022/08/22 08:53:31;;;;;;;13.63;4.50;;;;;;;;;;4975356;28;94919;-76
2022/08/22 08:56:02;;;;;;;6.03;4.50;;;;;;;;;;4976309;28;95471;-74
2022/08/22 08:58:47;;;;;;;10.40;5.47;;;;;;;;;;4975498;28;93134;-72
2022/08/22 09:01:28;;;;;;;10.57;5.35;;;;;;;;;;4977240;28;92443;-73
2022/08/22 09:04:14;;;;;;;17.73;5.20;;;;;;;;;;4990388;28;93061;-72
2022/08/22 09:06:40;;;;;;;12.35;4.63;;;;;;;;;;4987280;28;93881;-73
2022/08/22 09:09:07;;;;;;;12.02;4.10;;;;;;;;;;4990420;28;92553;-73
2022/08/22 09:11:37;;;;;;;10.88;4.18;;;;;;;;;;4976318;28;93443;-72
2022/08/22 09:14:31;;;;;;;11.05;4.18;;;;;;;;;;4990655;28;92329;-72
2022/08/22 09:17:02;;;;;;;11.27;3.92;;;;;;;;;;4996248;28;93905;-73
2022/08/22 09:20:01;;;;;;;16.08;4.78;;;;;;;;;;4993850;28;95800;-73
2022/08/22 09:23:19;;;;;;;10.80;3.83;;;;;;;;;;4948136;28;92500;-73
2022/08/22 09:25:59;;;;;;;10.32;4.38;;;;;;;;;;4934184;28;94117;-72
2022/08/22 09:28:28;;;;;;;10.23;4.22;;;;;;;;;;4935283;28;93480;-72
2022/08/22 09:31:01;;;;;;;16.65;4.93;;;;;;;;;;4934569;28;92547;-71
2022/08/22 09:33:51;;;;;;;12.43;4.53;;;;;;;;;;4953715;28;92753;-72
2022/08/22 09:36:20;;;;;;;10.63;4.63;;;;;;;;;;4975906;28;92489;-72
2022/08/22 09:38:52;;;;;;;8.43;4.10;;;;;;;;;;4978953;28;93062;-72
2022/08/22 09:41:25;;;;;;;15.00;4.10;;;;;;;;;;4995515;28;94270;-72
2022/08/22 09:44:00;;;;;;;15.65;4.50;;;;;;;;;;4995739;28;92567;-72
2022/08/22 09:46:33;;;;;;;9.80;3.90;;;;;;;;;;4995000;28;94790;-72
2022/08/22 09:49:21;;;;;;;8.35;4.15;;;;;;;;;;4995188;28;94492;-72
2022/08/22 09:52:01;;;;;;;13.80;4.30;;;;;;;;;;4995826;28;92737;-72
2022/08/22 09:54:45;;;;;;;12.88;4.25;;;;;;;;;;4994896;28;92980;-72
2022/08/22 09:57:14;;;;;;;10.68;4.03;;;;;;;;;;4998866;28;94269;-72
2022/08/22 09:59:50;;;;;;;9.27;3.45;;;;;;;;;;4995293;28;93090;-71
2022/08/22 10:02:35;;;;;;;7.88;3.60;;;;;;;;;;4995485;28;93519;-72
2022/08/22 10:05:17;;;;;;;14.13;4.03;;;;;;;;;;4996401;28;91652;-72
2022/08/22 10:08:04;;;;;;;7.32;3.20;;;;;;;;;;4987151;28;92416;-73
2022/08/22 10:10:41;;;;;;;12.05;3.42;;;;;;;;;;4986203;28;93165;-72
2022/08/22 10:13:13;;;;;;;8.50;4.10;;;;;;;;;;4993976;28;94755;-72
2022/08/22 10:15:53;;;;;;;10.30;3.92;;;;;;;;;;4978821;28;95323;-72
2022/08/22 10:18:21;;;;;;;10.63;3.42;;;;;;;;;;4995031;28;93126;-72
2022/08/22 10:21:13;;;;;;;10.73;2.70;;;;;;;;;;4998057;28;92389;-72
2022/08/22 10:23:52;;;;;;;10.60;3.45;;;;;;;;;;4974490;28;94080;-72
2022/08/22 10:26:28;;;;;;;9.55;3.67;;;;;;;;;;4975569;28;92448;-72
2022/08/22 10:28:58;;;;;;;17.25;3.78;;;;;;;;;;4974596;28;93157;-72
2022/08/22 10:31:48;;;;;;;10.18;2.80;;;;;;;;;;4976168;28;92627;-72
2022/08/22 10:34:31;;;;;;;10.00;3.20;;;;;;;;;;4975196;28;92502;-72
2022/08/22 10:37:09;;;;;;;9.40;3.38;;;;;;;;;;4988013;28;94177;-72
2022/08/22 10:39:42;;;;;;;11.85;3.90;;;;;;;;;;4988328;28;96008;-72
2022/08/22 10:42:24;;;;;;;18.38;3.30;;;;;;;;;;4998075;28;92428;-72
2022/08/22 10:45:11;;;;;;;9.20;3.10;;;;;;;;;;4993732;28;92337;-72
2022/08/22 10:48:02;;;;;;;7.18;2.80;;;;;;;;;;4994803;28;92430;-72
2022/08/22 10:50:45;;;;;;;6.38;2.65;;;;;;;;;;4988320;28;93156;-72
2022/08/22 10:53:32;;;;;;;13.95;2.80;;;;;;;;;;4975381;28;93072;-72
2022/08/22 10:56:08;;;;;;;7.35;2.88;;;;;;;;;;4974987;28;92355;-72
2022/08/22 10:58:42;;;;;;;9.55;3.40;;;;;;;;;;4974631;28;93160;-72
2022/08/22 11:01:11;;;;;;;12.25;3.95;;;;;;;;;;4975277;28;93381;-72
2022/08/22 11:04:15;;;;;;;12.30;3.72;;;;;;;;;;4985670;28;92735;-72
2022/08/22 11:06:44;;;;;;;9.55;3.45;;;;;;;;;;4996244;28;94761;-72
2022/08/22 11:09:13;;;;;;;10.48;3.20;;;;;;;;;;4976893;28;92447;-72
2022/08/22 11:11:40;;;;;;;10.65;3.20;;;;;;;;;;4973860;28;93272;-72
2022/08/22 11:14:06;;;;;;;13.85;3.47;;;;;;;;;;4974243;28;94171;-72
2022/08/22 11:16:36;;;;;;;8.48;3.72;;;;;;;;;;4975146;28;92498;-72
2022/08/22 11:19:27;;;;;;;12.10;3.67;;;;;;;;;;4978727;28;93018;-72
2022/08/22 11:22:00;;;;;;;12.75;3.33;;;;;;;;;;4953651;28;94098;-72
2022/08/22 11:24:48;;;;;;;14.13;3.20;;;;;;;;;;4992718;28;91728;-72
2022/08/22 11:27:40;;;;;;;6.70;3.17;;;;;;;;;;4986014;28;93465;-72
2022/08/22 11:30:10;;;;;;;9.50;2.53;;;;;;;;;;4977446;28;93417;-72
2022/08/22 11:33:02;;;;;;;10.15;3.00;;;;;;;;;;4985997;28;94683;-72
2022/08/22 11:35:57;;;;;;;10.60;3.22;;;;;;;;;;4994575;28;93314;-72
2022/08/22 11:38:45;;;;;;;6.95;2.28;;;;;;;;;;4982657;28;92472;-72
2022/08/22 11:41:34;;;;;;;10.18;2.90;;;;;;;;;;4993621;28;93157;-72
2022/08/22 11:44:04;;;;;;;9.05;2.65;;;;;;;;;;4991094;28;94266;-71
2022/08/22 11:46:32;;;;;;;12.82;3.08;;;;;;;;;;4996833;28;92878;-72
2022/08/22 11:48:59;;;;;;;7.68;3.10;;;;;;;;;;4996356;28;93168;-72
2022/08/22 11:51:45;;;;;;;11.50;2.83;;;;;;;;;;4991962;28;93139;-72
2022/08/22 11:54:20;;;;;;;6.93;3.45;;;;;;;;;;4980857;28;92642;-72
2022/08/22 11:57:07;;;;;;;12.52;2.45;;;;;;;;;;4978313;28;93260;-73
2022/08/22 11:59:39;;;;;;;10.05;2.72;;;;;;;;;;4976038;28;94850;-71
2022/08/22 12:02:16;;;;;;;7.50;2.88;;;;;;;;;;4977658;28;95529;-71
2022/08/22 12:04:51;;;;;;;9.48;2.88;;;;;;;;;;4977233;28;93432;-71
2022/08/22 12:07:38;;;;;;;9.02;2.92;;;;;;;;;;4977586;28;92475;-71
2022/08/22 12:10:11;;;;;;;5.90;2.95;;;;;;;;;;4978076;28;94061;-71
2022/08/22 12:13:00;;;;;;;9.80;3.35;;;;;;;;;;4977290;28;93237;-71
2022/08/22 12:15:34;;;;;;;7.45;2.90;;;;;;;;;;4976660;28;92388;-71
2022/08/22 12:18:03;;;;;;;12.43;3.35;;;;;;;;;;4980897;28;92731;-71
2022/08/22 12:20:32;;;;;;;;;;;;;;;;;;4994771;28;92489;-71
2022/08/22 12:23:16;;;;;;;6.75;3.00;;;;;;;;;;4989622;28;122907;-71
2022/08/22 12:25:46;;;;;;;13.23;3.33;;;;;;;;;;4976046;28;94703;-71
2022/08/22 12:28:27;;;;;;;8.32;2.65;;;;;;;;;;4977714;28;92451;-71
2022/08/22 12:31:02;;;;;;;5.30;2.45;;;;;;;;;;4977350;28;93833;-71
2022/08/22 12:33:40;;;;;;;8.27;2.90;;;;;;;;;;4977561;28;92453;-71
2022/08/22 12:36:20;;;;;;;3.67;2.17;;;;;;;;;;4977017;28;92468;-72
2022/08/22 12:39:00;;;;;;;8.25;2.95;;;;;;;;;;4980342;28;92850;-72
2022/08/22 12:41:59;;;;;;;7.25;3.15;;;;;;;;;;4977491;28;92341;-72
2022/08/22 12:44:52;;;;;;;7.70;2.78;;;;;;;;;;4978247;28;93029;-72
2022/08/22 12:47:44;;;;;;;15.30;2.90;;;;;;;;;;4995850;28;93585;-72
2022/08/22 12:50:19;;;;;;;10.73;3.10;;;;;;;;;;4979417;28;93089;-72
2022/08/22 12:52:49;;;;;;;9.93;3.47;;;;;;;;;;4993042;28;94891;-72
2022/08/22 12:55:21;;;;;;;13.60;3.10;;;;;;;;;;4996834;28;93241;-72
2022/08/22 12:58:02;;;;;;;10.82;3.25;;;;;;;;;;4995079;28;92943;-72
2022/08/22 13:00:47;;;;;;;10.40;2.75;;;;;;;;;;4996211;28;93110;-72
2022/08/22 13:03:23;;;;;;;5.43;2.33;;;;;;;;;;4992650;28;93592;-72
2022/08/22 13:05:50;;;;;;;6.00;2.53;;;;;;;;;;4995894;28;93322;-72
2022/08/22 13:08:34;;;;;;;13.25;3.42;;;;;;;;;;4996811;28;92928;-72
2022/08/22 13:11:05;;;;;;;15.35;2.95;;;;;;;;;;4996484;28;91721;-72
2022/08/22 13:13:42;;;;;;;5.03;2.45;;;;;;;;;;4989467;28;93372;-72
2022/08/22 13:16:22;;;;;;;9.35;3.47;;;;;;;;;;4982984;28;94080;-72
2022/08/22 13:18:52;;;;;;;8.43;2.90;;;;;;;;;;4993998;28;94816;-72
2022/08/22 13:21:22;;;;;;;9.80;3.20;;;;;;;;;;4983033;28;96138;-71
2022/08/22 13:23:52;;;;;;;11.40;3.80;;;;;;;;;;4979605;28;94081;-71
2022/08/22 13:26:20;;;;;;;4.88;2.67;;;;;;;;;;4992724;28;94150;-70
2022/08/22 13:29:00;;;;;;;;;;;;;;;;;;4984625;28;94777;-71
2022/08/22 13:31:50;;;;;;;6.20;3.17;;;;;;;;;;4986486;28;92923;-71
2022/08/22 13:34:28;;;;;;;8.93;2.67;;;;;;;;;;4984407;28;93609;-71
2022/08/22 13:36:57;;;;;;;7.50;3.00;;;;;;;;;;4995589;28;92709;-70
2022/08/22 13:39:30;;;;;;;3.57;2.07;;;;;;;;;;4983092;28;92604;-71
2022/08/22 13:41:58;;;;;;;10.82;3.05;;;;;;;;;;4988364;28;93163;-71
2022/08/22 13:44:28;;;;;;;6.90;2.75;;;;;;;;;;4992447;28;95665;-71
2022/08/22 13:47:04;;;;;;;11.13;3.40;;;;;;;;;;4991821;28;92519;-70
2022/08/22 13:49:42;;;;;;;7.30;2.78;;;;;;;;;;4978795;28;93970;-69
2022/08/22 13:52:14;;;;;;;5.32;2.30;;;;;;;;;;4992791;28;92432;-70
2022/08/22 13:54:54;;;;;;;7.50;2.75;;;;;;;;;;4993671;28;94058;-70
2022/08/22 13:57:33;;;;;;;10.30;2.55;;;;;;;;;;4977617;28;94338;-71
2022/08/22 14:00:30;;;;;;;5.50;2.58;;;;;;;;;;4977140;28;93165;-71
2022/08/22 14:03:04;;;;;;;7.45;2.75;;;;;;;;;;4986279;28;93183;-71
2022/08/22 14:05:37;;;;;;;8.52;2.97;;;;;;;;;;4990394;28;92784;-71
2022/08/22 14:08:13;;;;;;;5.10;2.33;;;;;;;;;;4982945;28;94087;-71
2022/08/22 14:10:46;;;;;;;6.07;2.40;;;;;;;;;;4973693;28;95505;-72
2022/08/22 14:13:36;;;;;;;8.57;2.30;;;;;;;;;;4991080;28;93976;-71
2022/08/22 14:16:05;;;;;;;6.45;2.80;;;;;;;;;;4976664;28;94140;-70
2022/08/22 14:18:38;;;;;;;6.20;2.45;;;;;;;;;;4979246;28;93243;-71
2022/08/22 14:21:17;;;;;;;6.43;2.40;;;;;;;;;;4975512;28;92492;-71
2022/08/22 14:23:45;;;;;;;15.30;3.38;;;;;;;;;;4995250;28;93128;-71
2022/08/22 14:26:31;;;;;;;8.50;2.20;;;;;;;;;;4988044;28;93176;-71
2022/08/22 14:29:14;;;;;;;4.50;2.80;;;;;;;;;;4981364;28;94643;-71
2022/08/22 14:31:53;;;;;;;7.88;2.95;;;;;;;;;;4992674;28;93143;-71
2022/08/22 14:34:20;;;;;;;6.22;2.13;;;;;;;;;;4979711;28;93978;-71
2022/08/22 14:36:51;;;;;;;4.25;2.65;;;;;;;;;;4980688;28;95257;-70
2022/08/22 14:39:41;;;;;;;7.65;2.67;;;;;;;;;;4975444;28;93645;-71
2022/08/22 14:42:16;;;;;;;9.13;2.33;;;;;;;;;;4969492;28;92391;-71
2022/08/22 14:44:43;;;;;;;4.82;2.15;;;;;;;;;;4975361;28;93051;-71
2022/08/22 14:47:22;;;;;;;10.60;3.03;;;;;;;;;;4975259;28;94105;-70
2022/08/22 14:50:28;;;;;;;4.38;2.42;;;;;;;;;;4974072;28;92776;-70
2022/08/22 14:53:03;;;;;;;7.45;2.38;;;;;;;;;;4976429;28;93828;-70
2022/08/22 14:55:31;;;;;;;7.50;2.47;;;;;;;;;;4982297;28;93389;-70
2022/08/22 14:57:59;;;;;;;10.52;2.72;;;;;;;;;;4980996;28;92450;-70
2022/08/22 15:00:31;;;;;;;8.93;3.20;;;;;;;;;;4979899;28;94314;-71
2022/08/22 15:03:12;;;;;;;4.45;2.25;;;;;;;;;;4991119;28;94889;-71
2022/08/22 15:05:40;;;;;;;4.82;2.40;;;;;;;;;;4980478;28;95446;-71
2022/08/22 15:08:10;;;;;;;;;;;;;;;;;;4979153;28;94221;-70
2022/08/22 15:10:38;;;;;;;4.93;2.30;;;;;;;;;;4987159;28;118141;-71
2022/08/22 15:13:08;;;;;;;4.88;2.78;;;;;;;;;;4985839;28;92690;-71
2022/08/22 15:15:43;;;;;;;5.05;2.45;;;;;;;;;;4987466;28;94257;-71
2022/08/22 15:18:26;;;;;;;7.47;3.30;;;;;;;;;;4986691;28;93143;-70
2022/08/22 15:21:09;;;;;;;5.82;2.58;;;;;;;;;;4987177;28;93846;-70
2022/08/22 15:23:41;;;;;;;6.45;2.45;;;;;;;;;;4977767;28;92536;-71
2022/08/22 15:26:26;;;;;;;6.05;2.58;;;;;;;;;;4986587;28;93886;-71
2022/08/22 15:29:02;;;;;;;3.63;2.20;;;;;;;;;;4992718;28;95925;-71
2022/08/22 15:31:30;;;;;;;9.52;2.03;;;;;;;;;;4993964;28;92458;-71
2022/08/22 15:34:13;;;;;;;8.95;3.10;;;;;;;;;;4984745;28;93882;-72